Adelphi, Maryland
Current Conditions -  °F | °C
As of 5:50 PM on Thursday 27 Nov 2014 (Local Time) from KCGS Reporting Station
Broken Clouds Broken Clouds  
Wind Chill: 39°   Ceiling: 7000
Heat Index: 39°   Visibility: 10mi
Dew Point: 30°   Wind: 3mph
Humidity: 70%   Direction: 330°NNW
Pressure: 30.11"   Gusts: NA
Location:  39°N, 76.97°W
Report Text: KCGS 272250Z AUTO 33003KT 10SM BKN070 04/M01 A3011 RMK AO1
Loading
Personal Weather Stations






























Interactive Weather Map New forecast layout! Learn more

10-Day Weather Forecast

Advertisements
Track Severe Weather on mobile